CDT,Max TemperatureF,Mean TemperatureF,Min TemperatureF,Max Dew PointF,MeanDew PointF,Min DewpointF,Max Humidity, Mean Humidity, Min Humidity, Max Sea Level PressureIn, Mean Sea Level PressureIn, Min Sea Level PressureIn, Max VisibilityMiles, Mean VisibilityMiles, Min VisibilityMiles, Max Wind SpeedMPH, Mean Wind SpeedMPH, Max Gust SpeedMPH,PrecipitationIn, CloudCover, Events, WindDirDegrees
2013-6-1,60,56,50,57,51,45,94,82,72,30.03,29.77,29.58,10,8,2,22,11,29,0.02,7,Rain,306
2013-6-2,66,58,50,46,40,30,87,55,26,30.12,30.07,30.01,10,10,10,10,6,,0.00,4,,347
2013-6-3,75,63,51,48,43,37,76,49,27,30.03,29.95,29.84,10,10,10,17,7,29,0.00,0,,146
2013-6-4,64,60,57,59,54,48,94,78,59,30.02,29.96,29.90,10,8,0,13,7,18,0.17,5,Fog-Rain,123
2013-6-5,66,60,53,57,50,46,94,73,52,30.05,30.02,29.97,10,9,0,15,6,21,0.00,5,Fog,312
2013-6-6,66,60,53,54,50,46,94,74,52,30.04,30.00,29.96,10,9,3,12,5,16,0.00,5,,6
2013-6-7,69,58,48,50,47,43,93,63,38,30.06,29.99,29.90,10,10,4,8,2,,0.00,2,,92
2013-6-8,60,58,55,57,52,46,94,79,63,29.90,29.80,29.66,10,9,4,20,8,30,1.13,6,Rain,130
2013-6-9,66,62,59,59,57,55,94,86,73,29.85,29.69,29.60,10,6,2,17,11,26,0.12,8,Rain,300
2013-6-10,75,66,57,63,57,55,94,77,53,29.90,29.86,29.82,10,7,0,10,6,16,0.00,5,Fog,136
2013-6-11,89,78,66,70,63,59,83,59,38,29.88,29.80,29.75,10,10,10,15,8,23,0.00,0,,112
2013-6-12,77,68,60,68,61,52,88,77,64,30.04,29.84,29.59,10,9,2,23,10,29,0.20,5,Rain,17
2013-6-13,78,66,55,55,49,43,88,53,28,30.13,30.07,30.01,10,10,10,10,7,,0.00,1,,48
2013-6-14,80,72,64,64,59,55,83,65,47,30.06,29.91,29.79,10,10,7,22,9,34,0.07,2,Rain,150
2013-6-15,78,71,64,64,61,55,88,71,47,29.98,29.91,29.87,10,10,7,17,5,34,0.17,2,Rain,42
2013-6-16,82,71,60,61,49,32,83,50,17,30.02,29.99,29.93,10,10,7,13,3,17,0.00,0,,274
2013-6-17,82,71,60,57,51,45,77,50,26,30.04,30.00,29.95,10,10,10,21,7,26,0.00,0,,320
2013-6-18,82,71,60,55,51,45,73,49,26,30.07,30.03,29.98,10,10,10,9,4,,0.00,1,,46
2013-6-19,87,76,64,61,56,52,73,50,33,30.03,29.97,29.90,10,10,7,20,7,28,0.00,1,,161
2013-6-20,89,80,71,68,64,61,78,59,43,29.95,29.89,29.83,10,10,10,23,12,30,0.00,2,,161
2013-6-21,91,82,73,72,67,61,83,62,38,29.90,29.83,29.78,10,10,10,22,11,33,0.00,2,,158
2013-6-22,82,73,64,70,63,61,88,73,65,30.02,29.88,29.75,10,10,7,21,9,32,0.24,3,Rain,84
2013-6-23,80,72,64,66,62,61,88,69,51,29.93,29.84,29.69,10,10,10,26,9,47,0.03,1,Rain,247
2013-6-24,82,74,66,66,64,61,88,75,51,29.93,29.84,29.78,10,9,5,15,4,22,0.17,3,Rain,132
2013-6-25,87,78,69,72,65,55,88,66,37,29.79,29.74,29.70,10,10,10,16,6,18,0.00,1,,149
2013-6-26,87,79,71,72,63,52,94,60,29,29.90,29.80,29.69,10,9,4,18,6,24,0.00,0,,312
2013-6-27,86,78,69,66,59,52,83,60,31,30.00,29.95,29.89,10,10,10,18,6,24,0.03,1,Rain,293
2013-6-28,84,73,62,63,52,45,77,49,25,29.99,29.95,29.91,10,10,10,25,11,37,0.00,1,,326
2013-6-29,78,70,62,57,52,45,77,55,30,30.00,29.93,29.90,10,10,10,21,10,34,0.00,2,,357
2013-6-30,78,68,59,54,45,37,72,46,24,30.16,30.10,30.00,10,10,10,10,5,,0.00,0,,42